Time;durP1;ratioP1;P1;durP2;ratioP2;P2;SDS_P1;SDS_P2;PMS_P1;PMS_P2;Temp;Humidity;BMP_temperature;BMP_pressure;BME280_temperature;BME280_humidity;BME280_pressure;Samples;Min_cycle;Max_cycle;Signal;HPM_P1;HPM_P2
2022/04/26 03:37:23;;;;;;;6.50;6.00;;;9.20;99.90;;;;;;5042164;28;20192;-72
2022/04/26 03:39:49;;;;;;;7.53;6.93;;;9.30;99.90;;;;;;5039317;28;20184;-73
2022/04/26 03:42:15;;;;;;;7.03;6.43;;;9.30;99.90;;;;;;5042980;28;20207;-73
2022/04/26 03:44:42;;;;;;;7.28;6.65;;;9.30;99.90;;;;;;5043845;28;20561;-73
2022/04/26 03:47:08;;;;;;;6.43;5.93;;;9.40;99.90;;;;;;5041559;28;20199;-72
2022/04/26 03:49:35;;;;;;;7.28;6.68;;;9.40;99.90;;;;;;5042803;28;20176;-72
2022/04/26 03:52:01;;;;;;;7.60;6.57;;;9.40;99.90;;;;;;5043162;28;20180;-72
2022/04/26 03:54:26;;;;;;;8.25;7.50;;;9.40;99.90;;;;;;5042453;28;20215;-72
2022/04/26 03:56:52;;;;;;;6.93;6.32;;;9.30;99.90;;;;;;5045230;28;20717;-72
2022/04/26 03:59:21;;;;;;;7.07;6.47;;;9.30;99.90;;;;;;5044591;28;21194;-72
2022/04/26 04:01:47;;;;;;;7.10;6.50;;;9.30;99.90;;;;;;5035787;28;20254;-72
2022/04/26 04:04:13;;;;;;;8.68;7.95;;;9.30;99.90;;;;;;5044399;28;20195;-72
2022/04/26 04:06:39;;;;;;;7.68;7.03;;;9.20;99.90;;;;;;5041681;28;20180;-73
2022/04/26 04:09:05;;;;;;;6.82;6.32;;;9.20;99.90;;;;;;5040586;28;20233;-72
2022/04/26 04:11:30;;;;;;;7.93;7.28;;;9.20;99.90;;;;;;5037532;28;20172;-73
2022/04/26 04:13:56;;;;;;;8.65;7.85;;;9.10;99.90;;;;;;5037370;28;20176;-72
2022/04/26 04:16:22;;;;;;;8.02;7.32;;;9.10;99.90;;;;;;5045918;28;20205;-72
2022/04/26 04:21:32;;;;;;;9.23;8.43;;;9.00;99.90;;;;;;5043414;28;20242;-73
2022/04/26 04:23:58;;;;;;;8.23;7.53;;;9.00;99.90;;;;;;5039684;28;20666;-72
2022/04/26 04:26:23;;;;;;;9.63;8.73;;;9.00;99.90;;;;;;5046686;28;20237;-71
2022/04/26 04:28:49;;;;;;;8.25;7.55;;;8.90;99.90;;;;;;5043362;28;20180;-72
2022/04/26 04:31:15;;;;;;;9.10;8.30;;;9.00;99.90;;;;;;5046076;28;20663;-72
2022/04/26 04:33:40;;;;;;;8.20;7.40;;;8.90;99.90;;;;;;5048957;28;20222;-72
2022/04/26 04:36:06;;;;;;;9.18;8.43;;;8.90;99.90;;;;;;5050098;28;20666;-72
2022/04/26 04:38:32;;;;;;;9.10;8.40;;;8.80;99.90;;;;;;5041001;28;20230;-72
2022/04/26 04:40:58;;;;;;;9.45;8.40;;;8.80;99.90;;;;;;5043544;28;20184;-72
2022/04/26 04:43:24;;;;;;;8.85;8.15;;;8.80;99.90;;;;;;5046794;28;20208;-72
2022/04/26 04:45:49;;;;;;;9.07;8.35;;;8.70;99.90;;;;;;5049957;28;20566;-72
2022/04/26 04:48:15;;;;;;;9.25;8.45;;;8.70;99.90;;;;;;5051218;28;20184;-72
2022/04/26 04:50:41;;;;;;;9.30;8.40;;;8.70;99.90;;;;;;5051410;28;20172;-72
2022/04/26 04:53:07;;;;;;;9.63;8.73;;;8.70;99.90;;;;;;5053007;28;20180;-72
2022/04/26 04:55:32;;;;;;;10.48;9.48;;;8.60;99.90;;;;;;5055711;28;20207;-72
2022/04/26 04:57:58;;;;;;;9.68;8.82;;;8.60;99.90;;;;;;5053483;28;20199;-71
2022/04/26 05:00:24;;;;;;;9.48;8.57;;;8.70;99.90;;;;;;5051653;28;20176;-71
2022/04/26 05:02:50;;;;;;;9.63;8.82;;;8.70;99.90;;;;;;5047804;28;20201;-71
2022/04/26 05:05:15;;;;;;;10.25;9.25;;;8.70;99.90;;;;;;5049212;28;20207;-72
2022/04/26 05:07:41;;;;;;;9.85;8.88;;;8.70;99.90;;;;;;5048412;28;20184;-73
2022/04/26 05:10:07;;;;;;;9.07;8.35;;;8.70;99.90;;;;;;5047791;28;20176;-73
2022/04/26 05:12:33;;;;;;;10.23;9.23;;;8.80;99.90;;;;;;5044397;28;20699;-74
2022/04/26 05:15:00;;;;;;;10.43;9.52;;;8.70;99.90;;;;;;5046762;28;20192;-73
2022/04/26 05:17:29;;;;;;;10.80;9.80;;;8.70;99.90;;;;;;5044238;28;20231;-74
2022/04/26 05:19:55;;;;;;;10.20;9.40;;;8.60;99.90;;;;;;5032799;28;20231;-74
2022/04/26 05:22:21;;;;;;;9.85;8.98;;;8.60;99.90;;;;;;5026433;28;20200;-74
2022/04/26 05:24:58;;;;;;;10.70;9.80;;;8.70;99.90;;;;;;5044024;28;20188;-73
2022/04/26 05:27:24;;;;;;;10.35;9.45;;;8.70;99.90;;;;;;5042206;28;20180;-76
2022/04/26 05:29:50;;;;;;;11.23;10.13;;;8.70;99.90;;;;;;5046597;28;20537;-76
2022/04/26 05:32:27;;;;;;;10.73;9.73;;;8.80;99.90;;;;;;5045305;28;20191;-76
2022/04/26 05:35:11;;;;;;;10.85;9.77;;;8.90;99.90;;;;;;5041278;28;20253;-75
2022/04/26 05:37:37;;;;;;;10.88;9.38;;;8.90;99.90;;;;;;5054092;28;20175;-74
2022/04/26 05:40:03;;;;;;;11.02;10.13;;;8.90;99.90;;;;;;5052825;28;20543;-74
2022/04/26 05:42:30;;;;;;;10.32;9.35;;;8.90;99.90;;;;;;5045607;28;20207;-74
2022/04/26 05:44:56;;;;;;;11.25;10.25;;;8.80;99.90;;;;;;5050315;28;20298;-74
2022/04/26 05:47:22;;;;;;;11.63;10.52;;;8.80;99.90;;;;;;5047672;28;20661;-73
2022/04/26 05:49:48;;;;;;;11.77;10.65;;;8.70;99.90;;;;;;5042129;28;20184;-74
2022/04/26 05:52:13;;;;;;;11.90;10.82;;;8.70;99.90;;;;;;5039203;28;20177;-74
2022/04/26 05:54:39;;;;;;;12.43;11.23;;;8.70;99.90;;;;;;5044286;28;20203;-74
2022/04/26 05:57:05;;;;;;;10.73;9.82;;;8.70;99.90;;;;;;5042363;28;20257;-74
2022/04/26 05:59:31;;;;;;;10.35;9.45;;;8.70;99.90;;;;;;5041695;28;20202;-76
2022/04/26 06:01:57;;;;;;;12.65;11.00;;;8.80;99.90;;;;;;5047477;28;20184;-76
2022/04/26 06:04:24;;;;;;;11.98;10.93;;;8.90;99.90;;;;;;5047236;28;20203;-75
2022/04/26 06:06:50;;;;;;;11.90;10.80;;;8.90;99.90;;;;;;5043345;28;20177;-72
2022/04/26 06:09:16;;;;;;;11.68;10.68;;;9.00;99.90;;;;;;5042426;28;20183;-73
2022/04/26 06:11:42;;;;;;;13.25;12.05;;;9.00;99.90;;;;;;5038730;28;20222;-73
2022/04/26 06:14:07;;;;;;;12.38;11.18;;;9.10;99.90;;;;;;5045921;28;20196;-75
2022/04/26 06:16:33;;;;;;;13.95;10.70;;;9.10;99.90;;;;;;5048090;28;20223;-74
2022/04/26 06:18:58;;;;;;;11.80;10.80;;;9.20;99.90;;;;;;5049896;28;20623;-74
2022/04/26 06:21:24;;;;;;;11.38;10.18;;;9.20;99.90;;;;;;5047533;28;20187;-73
2022/04/26 06:23:50;;;;;;;11.65;10.50;;;9.30;99.90;;;;;;5042462;28;20690;-72
2022/04/26 06:26:15;;;;;;;12.93;11.60;;;9.30;99.90;;;;;;5045968;28;20200;-73
2022/04/26 06:28:41;;;;;;;13.60;12.05;;;9.30;99.90;;;;;;5048544;28;20574;-71
2022/04/26 06:31:07;;;;;;;13.13;11.93;;;9.30;99.90;;;;;;5050751;28;20708;-72
2022/04/26 06:33:35;;;;;;;12.20;10.98;;;9.30;99.90;;;;;;5043412;28;20188;-72
2022/04/26 06:36:01;;;;;;;11.60;10.60;;;9.30;99.90;;;;;;5047644;28;20188;-73
2022/04/26 06:38:27;;;;;;;12.98;11.73;;;9.40;99.90;;;;;;5047550;28;20187;-79
2022/04/26 06:40:53;;;;;;;13.43;12.07;;;9.50;99.90;;;;;;5045025;28;20171;-76
2022/04/26 06:43:19;;;;;;;12.60;11.45;;;9.60;99.90;;;;;;5039181;28;20235;-76
2022/04/26 06:45:46;;;;;;;12.65;11.55;;;9.60;99.90;;;;;;5053012;28;20196;-75
2022/04/26 06:48:13;;;;;;;12.63;11.43;;;9.60;99.90;;;;;;5046852;28;20176;-77
2022/04/26 06:50:39;;;;;;;13.13;11.93;;;9.50;99.90;;;;;;5045140;28;20250;-75
2022/04/26 06:53:05;;;;;;;12.48;11.27;;;9.40;99.90;;;;;;5043929;28;20643;-74
2022/04/26 06:55:31;;;;;;;13.70;12.18;;;9.40;99.90;;;;;;5027161;28;20535;-74
2022/04/26 06:57:57;;;;;;;13.43;12.15;;;9.40;99.90;;;;;;5048282;28;20199;-74
2022/04/26 07:00:25;;;;;;;12.57;11.20;;;9.50;99.90;;;;;;5048587;28;20188;-74
2022/04/26 07:02:51;;;;;;;13.00;11.70;;;9.50;99.90;;;;;;5045280;28;20196;-75
2022/04/26 07:05:17;;;;;;;15.27;11.93;;;9.40;99.90;;;;;;5045140;28;20246;-76
2022/04/26 07:07:43;;;;;;;13.38;12.07;;;9.40;99.90;;;;;;5042953;28;20188;-73
2022/04/26 07:10:09;;;;;;;13.55;12.25;;;9.40;99.90;;;;;;5044986;28;20219;-73
2022/04/26 07:12:36;;;;;;;14.95;13.18;;;9.60;99.90;;;;;;5045855;28;20591;-73
2022/04/26 07:15:02;;;;;;;14.10;12.57;;;9.70;99.90;;;;;;5036214;28;20210;-73
2022/04/26 07:17:28;;;;;;;13.57;12.18;;;9.90;99.90;;;;;;5039464;28;20675;-73
2022/04/26 07:19:53;;;;;;;13.65;12.43;;;9.90;99.90;;;;;;5039116;28;20184;-74
2022/04/26 07:22:19;;;;;;;13.48;12.05;;;10.00;99.90;;;;;;5036183;28;20571;-74
2022/04/26 07:24:45;;;;;;;14.88;13.57;;;9.90;99.90;;;;;;5041144;28;20254;-75
2022/04/26 07:27:11;;;;;;;14.45;13.05;;;10.00;99.90;;;;;;5041046;28;20180;-78
2022/04/26 07:29:41;;;;;;;14.93;13.40;;;10.00;99.90;;;;;;5040578;28;20184;-76
2022/04/26 07:32:07;;;;;;;15.60;14.10;;;10.00;99.90;;;;;;5040350;28;20212;-85
2022/04/26 07:34:33;;;;;;;13.18;12.02;;;10.00;99.90;;;;;;5047198;28;20203;-83
2022/04/26 07:37:01;;;;;;;14.90;13.43;;;10.10;99.90;;;;;;5035072;28;20188;-82
2022/04/26 07:39:27;;;;;;;14.45;13.07;;;10.20;99.90;;;;;;5046084;28;20185;-78
2022/04/26 07:41:54;;;;;;;14.45;12.90;;;10.40;99.90;;;;;;5033308;28;20548;-81
2022/04/26 07:44:20;;;;;;;15.00;13.52;;;10.70;99.90;;;;;;5043654;28;20567;-80
2022/04/26 07:46:48;;;;;;;13.88;12.57;;;11.00;99.90;;;;;;5026095;28;20270;-78
2022/04/26 07:49:15;;;;;;;13.20;11.93;;;11.30;99.90;;;;;;5045345;28;20244;-80
2022/04/26 07:51:42;;;;;;;13.65;12.25;;;11.50;99.90;;;;;;5052966;28;20262;-81
2022/04/26 07:54:11;;;;;;;13.60;12.30;;;11.80;99.90;;;;;;5054422;28;20180;-83
2022/04/26 07:56:36;;;;;;;13.02;10.93;;;11.90;99.90;;;;;;5049743;28;20180;-80
2022/04/26 07:59:03;;;;;;;14.88;13.13;;;11.90;99.90;;;;;;5063329;28;20246;-79
2022/04/26 08:01:30;;;;;;;13.07;11.98;;;11.90;99.90;;;;;;5052525;28;20225;-79
2022/04/26 08:03:57;;;;;;;13.10;11.95;;;11.90;99.90;;;;;;5046897;28;20206;-78
2022/04/26 08:06:23;;;;;;;13.13;11.88;;;11.80;99.90;;;;;;5045237;28;20205;-80
2022/04/26 08:08:49;;;;;;;13.07;11.73;;;11.70;99.90;;;;;;5054312;28;20184;-77
2022/04/26 08:11:15;;;;;;;12.77;11.68;;;11.60;99.90;;;;;;5040124;28;20269;-79
2022/04/26 08:13:41;;;;;;;12.63;11.60;;;11.40;99.90;;;;;;5041926;28;20837;-78
2022/04/26 08:16:08;;;;;;;13.85;12.57;;;11.30;99.90;;;;;;5042709;28;20689;-78
2022/04/26 08:18:34;;;;;;;13.50;11.98;;;11.10;99.90;;;;;;5051984;28;20650;-78
2022/04/26 08:21:00;;;;;;;15.95;13.30;;;11.10;99.90;;;;;;5046294;28;20195;-72
2022/04/26 08:23:25;;;;;;;14.38;12.85;;;11.10;99.90;;;;;;5040398;28;20215;-74
2022/04/26 08:28:35;;;;;;;15.60;13.90;;;11.10;99.90;;;;;;5044558;28;20270;-75
2022/04/26 08:31:01;;;;;;;13.80;12.52;;;11.10;99.90;;;;;;5041935;28;20184;-75
2022/04/26 08:33:28;;;;;;;14.52;13.18;;;11.20;99.90;;;;;;5048463;28;20179;-75
2022/04/26 08:35:54;;;;;;;15.38;13.85;;;11.20;99.90;;;;;;5043058;28;20196;-75
2022/04/26 08:38:20;;;;;;;14.70;13.25;;;11.20;99.90;;;;;;5049256;28;20594;-75
2022/04/26 08:40:46;;;;;;;13.55;12.38;;;11.10;99.90;;;;;;5045556;28;20710;-75
2022/04/26 08:43:12;;;;;;;12.60;11.50;;;11.10;99.90;;;;;;5050421;28;20203;-76
2022/04/26 08:45:38;;;;;;;14.27;12.88;;;11.10;99.90;;;;;;5049838;28;20203;-75
2022/04/26 08:51:00;;;;;;;13.60;12.25;;;11.30;99.90;;;;;;5026690;28;20188;-75
2022/04/26 08:53:27;;;;;;;13.30;12.10;;;11.40;99.90;;;;;;5042691;28;20203;-74
2022/04/26 08:55:59;;;;;;;15.40;13.85;;;11.50;99.90;;;;;;5048014;28;20207;-74
2022/04/26 08:58:27;;;;;;;15.15;13.68;;;11.50;99.90;;;;;;5052526;28;20716;-77
2022/04/26 09:01:18;;;;;;;14.27;12.95;;;11.60;99.90;;;;;;5046946;28;20198;-77
2022/04/26 09:03:56;;;;;;;13.65;12.25;;;11.60;99.90;;;;;;5051593;28;20200;-77
2022/04/26 09:06:33;;;;;;;14.27;12.80;;;11.70;99.90;;;;;;5038824;28;20208;-76
2022/04/26 09:09:09;;;;;;;12.45;11.35;;;12.00;99.90;;;;;;5045785;28;20164;-77
2022/04/26 09:11:35;;;;;;;12.20;11.10;;;12.10;99.90;;;;;;5049146;28;20581;-77
2022/04/26 09:14:02;;;;;;;12.85;11.63;;;12.20;99.90;;;;;;5049974;28;20190;-77
2022/04/26 09:16:28;;;;;;;11.48;10.48;;;12.40;99.90;;;;;;5053295;28;20590;-77
2022/04/26 09:18:59;;;;;;;12.10;10.90;;;12.60;99.90;;;;;;5049766;28;20597;-77
2022/04/26 09:21:27;;;;;;;12.93;11.73;;;12.80;99.90;;;;;;5056041;28;20183;-77
2022/04/26 09:24:01;;;;;;;12.30;11.10;;;12.90;99.90;;;;;;5054163;28;20251;-74
2022/04/26 09:26:39;;;;;;;12.35;11.25;;;12.90;99.90;;;;;;5048122;28;20196;-77
2022/04/26 09:29:07;;;;;;;11.73;10.73;;;12.70;99.90;;;;;;5037957;28;20536;-77
2022/04/26 09:31:34;;;;;;;13.38;12.07;;;12.70;99.90;;;;;;5041238;28;20184;-77
2022/04/26 09:34:05;;;;;;;11.98;10.98;;;12.70;99.90;;;;;;5028701;28;20522;-78
2022/04/26 09:36:41;;;;;;;12.55;11.45;;;12.70;99.90;;;;;;5047513;28;20196;-77
2022/04/26 09:39:08;;;;;;;12.43;11.32;;;12.60;99.90;;;;;;5059772;28;20184;-79
2022/04/26 09:41:35;;;;;;;12.68;11.38;;;12.60;99.90;;;;;;5061914;28;20181;-79
2022/04/26 09:44:09;;;;;;;11.88;10.80;;;12.30;99.90;;;;;;5057488;28;20203;-78
2022/04/26 09:46:40;;;;;;;12.52;11.43;;;12.20;99.90;;;;;;5048790;28;20646;-78
2022/04/26 09:49:06;;;;;;;12.40;11.32;;;12.30;99.90;;;;;;5062989;28;20658;-80
2022/04/26 09:51:32;;;;;;;12.85;11.68;;;12.50;99.90;;;;;;5057873;28;20183;-79
2022/04/26 09:53:58;;;;;;;12.98;11.68;;;12.60;99.90;;;;;;5053070;28;20179;-75
2022/04/26 09:56:27;;;;;;;12.57;11.48;;;12.80;99.90;;;;;;5046191;28;20212;-74
2022/04/26 09:58:56;;;;;;;12.15;10.85;;;13.10;99.90;;;;;;5051912;28;20240;-76
2022/04/26 10:01:27;;;;;;;12.68;11.38;;;13.40;99.90;;;;;;5041089;28;20185;-77
2022/04/26 10:04:02;;;;;;;11.77;10.68;;;13.80;99.90;;;;;;5050215;28;20329;-77
2022/04/26 10:06:35;;;;;;;12.82;11.52;;;14.10;99.90;;;;;;5043864;28;20275;-76
2022/04/26 10:09:02;;;;;;;12.10;10.90;;;14.50;99.90;;;;;;5050181;28;20190;-76
2022/04/26 10:11:29;;;;;;;11.95;10.95;;;14.50;99.90;;;;;;5054371;28;20551;-76
2022/04/26 10:13:55;;;;;;;11.40;10.32;;;14.70;99.90;;;;;;5049131;28;20179;-76
2022/04/26 10:16:21;;;;;;;11.95;10.93;;;14.80;99.90;;;;;;5057155;28;20208;-77
2022/04/26 10:18:48;;;;;;;12.60;11.43;;;14.90;99.90;;;;;;5036530;28;20211;-77
2022/04/26 10:21:22;;;;;;;13.25;12.02;;;14.90;99.90;;;;;;5054356;28;20179;-77
2022/04/26 10:23:51;;;;;;;12.40;11.20;;;14.60;99.90;;;;;;5039176;28;20739;-77
2022/04/26 10:26:23;;;;;;;11.85;10.85;;;14.30;99.90;;;;;;5061251;28;20199;-77
2022/04/26 10:29:06;;;;;;;11.30;10.30;;;14.20;99.90;;;;;;5046863;28;20175;-77
2022/04/26 10:31:42;;;;;;;11.43;10.45;;;14.10;99.90;;;;;;5061356;28;20184;-78
2022/04/26 10:34:24;;;;;;;11.48;10.43;;;14.10;99.90;;;;;;5042751;28;20229;-77
2022/04/26 10:37:21;;;;;;;12.05;10.95;;;14.20;99.90;;;;;;5039317;28;20176;-77
2022/04/26 10:40:02;;;;;;;10.93;9.93;;;14.10;99.90;;;;;;5047250;28;20184;-77
2022/04/26 10:42:30;;;;;;;11.68;10.68;;;13.90;99.90;;;;;;5049270;28;20214;-76
2022/04/26 10:45:06;;;;;;;11.23;10.32;;;13.90;99.90;;;;;;5044565;28;20200;-77
2022/04/26 10:47:32;;;;;;;11.65;10.55;;;13.80;99.90;;;;;;5056780;28;20176;-76
2022/04/26 10:49:58;;;;;;;11.45;10.45;;;13.80;99.90;;;;;;5066492;28;20238;-77
2022/04/26 10:52:34;;;;;;;12.10;10.90;;;13.80;99.90;;;;;;5053164;28;20546;-76
2022/04/26 10:55:03;;;;;;;11.50;10.32;;;13.80;99.90;;;;;;5047367;28;20202;-77
2022/04/26 10:57:35;;;;;;;11.60;10.50;;;14.20;99.90;;;;;;5047916;28;20673;-77
2022/04/26 11:00:12;;;;;;;11.10;10.07;;;14.50;99.90;;;;;;5048051;28;20856;-76
2022/04/26 11:02:40;;;;;;;11.23;10.13;;;14.80;99.90;;;;;;5050635;28;20199;-77
2022/04/26 11:05:16;;;;;;;10.90;9.88;;;14.90;99.90;;;;;;5044400;28;20291;-77
2022/04/26 11:07:45;;;;;;;10.73;9.82;;;14.80;99.90;;;;;;5044774;28;20182;-77
2022/04/26 11:10:12;;;;;;;11.07;10.07;;;14.50;99.90;;;;;;5055666;28;20210;-77
2022/04/26 11:12:39;;;;;;;12.32;11.10;;;14.40;99.90;;;;;;5052235;28;20917;-77
2022/04/26 11:15:12;;;;;;;12.68;11.27;;;14.20;99.90;;;;;;5045604;28;20204;-76
2022/04/26 11:17:40;;;;;;;12.15;11.05;;;14.10;99.90;;;;;;5037120;28;20175;-76
2022/04/26 11:20:09;;;;;;;12.05;10.95;;;14.00;99.90;;;;;;5029564;28;20188;-73
2022/04/26 11:22:43;;;;;;;11.85;10.85;;;14.00;99.90;;;;;;5041984;28;20202;-74
2022/04/26 11:28:11;;;;;;;10.70;9.88;;;14.90;99.90;;;;;;5044878;28;20183;-75
2022/04/26 11:30:41;;;;;;;12.73;11.52;;;15.80;99.90;;;;;;5048303;28;20249;-77
2022/04/26 11:33:10;;;;;;;11.25;10.32;;;16.60;99.90;;;;;;5051593;28;20179;-79
2022/04/26 11:35:37;;;;;;;11.70;10.60;;;17.10;99.90;;;;;;5050911;28;20200;-76
2022/04/26 11:38:16;;;;;;;11.00;9.98;;;17.00;99.90;;;;;;5048931;28;20202;-77
2022/04/26 11:40:59;;;;;;;10.25;9.45;;;17.30;99.90;;;;;;5025769;28;20560;-76
2022/04/26 11:43:27;;;;;;;10.55;9.65;;;17.50;99.90;;;;;;5043600;28;20203;-80
2022/04/26 11:45:55;;;;;;;10.02;9.23;;;17.50;99.90;;;;;;5047199;28;20200;-76
2022/04/26 11:48:26;;;;;;;9.60;8.80;;;17.50;99.90;;;;;;5057562;28;20203;-76
2022/04/26 11:50:54;;;;;;;10.48;9.65;;;17.50;99.90;;;;;;5053151;28;20174;-76
2022/04/26 11:53:25;;;;;;;9.68;8.88;;;17.20;99.90;;;;;;5049438;28;20196;-77
2022/04/26 11:55:56;;;;;;;10.68;9.77;;;16.90;99.90;;;;;;5048864;28;20233;-81
2022/04/26 11:58:23;;;;;;;10.75;9.65;;;16.60;99.90;;;;;;5050016;28;20195;-74
2022/04/26 12:00:55;;;;;;;10.60;9.73;;;16.30;99.90;;;;;;5040358;28;20650;-75
2022/04/26 12:03:25;;;;;;;9.90;9.10;;;16.10;99.90;;;;;;5043553;28;20204;-75
2022/04/26 12:05:55;;;;;;;10.18;9.27;;;15.90;99.90;;;;;;5045759;28;20242;-74
2022/04/26 12:08:22;;;;;;;11.13;10.13;;;15.70;99.90;;;;;;5044855;28;20172;-75
2022/04/26 12:10:48;;;;;;;10.90;9.93;;;15.30;99.90;;;;;;5052443;28;20179;-74
2022/04/26 12:13:16;;;;;;;11.35;10.38;;;14.90;99.90;;;;;;5043310;28;20542;-74
2022/04/26 12:15:42;;;;;;;11.85;10.85;;;14.40;99.90;;;;;;5050630;28;20683;-73
2022/04/26 12:18:13;;;;;;;12.93;11.73;;;14.00;99.90;;;;;;5038905;28;20262;-74
2022/04/26 12:20:55;;;;;;;12.60;11.30;;;13.70;99.90;;;;;;5048465;28;20186;-78
2022/04/26 12:23:22;;;;;;;12.70;11.45;;;13.30;99.90;;;;;;5042254;28;20293;-76
2022/04/26 12:25:52;;;;;;;13.82;12.40;;;13.00;99.90;;;;;;5032570;28;20600;-76
2022/04/26 12:28:18;;;;;;;16.45;13.07;;;12.70;99.90;;;;;;5045446;28;20642;-75
2022/04/26 12:30:44;;;;;;;15.13;13.15;;;12.40;99.90;;;;;;5051588;28;20179;-75
2022/04/26 12:33:10;;;;;;;15.52;13.73;;;12.20;99.90;;;;;;5046280;28;20271;-75
2022/04/26 12:35:36;;;;;;;16.15;13.95;;;12.00;99.90;;;;;;5051501;28;20819;-75
2022/04/26 12:38:09;;;;;;;15.07;13.55;;;11.80;99.90;;;;;;5039404;28;20203;-73
2022/04/26 12:40:36;;;;;;;16.45;14.85;;;11.50;99.90;;;;;;5049767;28;20184;-75
2022/04/26 12:43:22;;;;;;;15.15;13.77;;;11.30;99.90;;;;;;5045677;28;20223;-76
2022/04/26 12:46:01;;;;;;;15.70;14.20;;;11.10;99.90;;;;;;5049651;28;20713;-76
2022/04/26 12:51:25;;;;;;;16.05;14.25;;;10.90;99.90;;;;;;5045391;28;20210;-74
2022/04/26 12:53:52;;;;;;;15.80;14.30;;;10.80;99.90;;;;;;5045031;28;20236;-74
2022/04/26 12:56:19;;;;;;;16.08;14.55;;;10.90;99.90;;;;;;5053035;28;20701;-75
2022/04/26 12:58:47;;;;;;;19.75;15.85;;;10.90;99.90;;;;;;5050398;28;20191;-75
2022/04/26 13:01:13;;;;;;;17.83;16.13;;;10.80;99.90;;;;;;5049945;28;20544;-75
2022/04/26 13:03:40;;;;;;;20.30;18.02;;;10.70;99.90;;;;;;5049836;28;20244;-75
2022/04/26 13:06:26;;;;;;;18.67;16.88;;;10.70;99.90;;;;;;5046377;28;20619;-74
2022/04/26 13:08:52;;;;;;;20.48;18.13;;;10.80;99.90;;;;;;5047941;28;20180;-74
2022/04/26 13:11:18;;;;;;;20.73;18.52;;;10.90;99.90;;;;;;5050545;28;20533;-74
2022/04/26 13:13:49;;;;;;;21.88;19.58;;;10.70;99.90;;;;;;5044468;28;20301;-74
2022/04/26 13:16:14;;;;;;;19.38;17.42;;;10.60;99.90;;;;;;5045081;28;20623;-73
2022/04/26 13:18:41;;;;;;;14.88;12.07;;;10.30;99.90;;;;;;5045422;28;20259;-74
2022/04/26 13:21:07;;;;;;;9.52;8.55;;;10.10;99.90;;;;;;5049871;28;20238;-74
2022/04/26 13:23:34;;;;;;;6.05;5.55;;;10.00;99.90;;;;;;5048033;28;20215;-73
2022/04/26 13:26:01;;;;;;;5.85;5.35;;;9.80;99.90;;;;;;5047631;28;20188;-74
2022/04/26 13:28:27;;;;;;;5.35;4.85;;;9.70;99.90;;;;;;5045966;28;20180;-74
2022/04/26 13:30:53;;;;;;;4.45;4.15;;;9.80;99.90;;;;;;5052534;28;20659;-74
2022/04/26 13:33:18;;;;;;;4.43;4.13;;;9.90;99.90;;;;;;5042569;28;20216;-74
2022/04/26 13:35:45;;;;;;;4.70;4.13;;;9.90;99.90;;;;;;5052011;28;20271;-74
2022/04/26 13:38:12;;;;;;;4.30;3.95;;;10.00;99.90;;;;;;5030473;28;20191;-74
2022/04/26 13:40:39;;;;;;;4.60;4.20;;;10.10;99.90;;;;;;5044271;28;20253;-73
2022/04/26 13:43:07;;;;;;;4.30;3.90;;;10.20;99.90;;;;;;5043412;28;20690;-73
2022/04/26 13:45:33;;;;;;;4.20;3.90;;;10.20;99.90;;;;;;5048959;28;20211;-73
2022/04/26 13:48:08;;;;;;;5.05;4.18;;;10.10;99.90;;;;;;5042230;28;20188;-73
2022/04/26 13:50:35;;;;;;;4.40;4.00;;;10.10;99.90;;;;;;5043327;28;20542;-76
2022/04/26 13:53:01;;;;;;;4.68;4.28;;;10.10;99.90;;;;;;5040962;28;20172;-74
2022/04/26 13:55:27;;;;;;;5.18;4.78;;;10.10;99.90;;;;;;5032155;28;20760;-75
2022/04/26 13:57:56;;;;;;;4.80;4.40;;;9.90;99.90;;;;;;5044949;28;20196;-73
2022/04/26 14:00:22;;;;;;;4.50;4.03;;;9.70;99.90;;;;;;5051111;28;20188;-73
2022/04/26 14:02:48;;;;;;;4.18;3.78;;;9.70;99.90;;;;;;5044090;28;20250;-75
2022/04/26 14:05:16;;;;;;;5.63;4.32;;;9.70;99.90;;;;;;5044318;28;20269;-74
2022/04/26 14:07:41;;;;;;;4.50;4.10;;;9.80;99.90;;;;;;5052384;28;20179;-74
2022/04/26 14:10:07;;;;;;;4.80;4.45;;;9.90;99.90;;;;;;5055036;28;20194;-73
2022/04/26 14:12:34;;;;;;;4.30;3.95;;;9.80;99.90;;;;;;5047872;28;20183;-74
2022/04/26 14:23:13;;;;;;;4.00;3.60;;;9.90;99.90;;;;;;5049737;28;20293;-75
2022/04/26 14:25:39;;;;;;;3.90;3.60;;;9.90;99.90;;;;;;5046045;28;20839;-76
2022/04/26 14:28:05;;;;;;;4.53;4.22;;;10.10;99.90;;;;;;5052294;28;20180;-79
2022/04/26 14:30:30;;;;;;;6.38;4.45;;;10.20;99.90;;;;;;5045591;28;20656;-77
2022/04/26 14:32:57;;;;;;;4.32;3.95;;;10.30;99.90;;;;;;5042351;28;20212;-76
2022/04/26 14:35:23;;;;;;;4.28;3.97;;;10.10;99.90;;;;;;5043806;28;20279;-75
2022/04/26 14:37:49;;;;;;;4.93;3.90;;;10.20;99.90;;;;;;5040532;28;20202;-75
2022/04/26 14:40:15;;;;;;;4.13;3.83;;;10.10;99.90;;;;;;5037062;28;20723;-75
2022/04/26 14:42:45;;;;;;;5.18;4.70;;;10.00;99.90;;;;;;5041262;28;20584;-76
2022/04/26 14:45:11;;;;;;;4.03;3.72;;;10.20;99.90;;;;;;5046208;28;20200;-80
2022/04/26 14:47:36;;;;;;;3.78;3.58;;;10.30;99.90;;;;;;5029284;28;20528;-78
2022/04/26 14:50:04;;;;;;;4.80;3.53;;;10.20;99.90;;;;;;5050381;28;20262;-78
2022/04/26 14:52:31;;;;;;;3.55;3.25;;;10.20;99.90;;;;;;5050184;28;20180;-78
2022/04/26 14:54:57;;;;;;;3.30;3.10;;;10.10;99.90;;;;;;5055106;28;20274;-78
2022/04/26 14:57:23;;;;;;;3.78;3.17;;;10.00;99.90;;;;;;5039658;28;20245;-79
2022/04/26 14:59:49;;;;;;;3.80;3.50;;;10.00;99.90;;;;;;5060752;28;20202;-79
2022/04/26 15:02:18;;;;;;;3.70;3.40;;;10.00;99.90;;;;;;5061142;28;20181;-78
2022/04/26 15:04:48;;;;;;;4.03;3.72;;;10.00;99.90;;;;;;5058824;28;20521;-79
2022/04/26 15:07:14;;;;;;;3.90;3.45;;;10.20;99.90;;;;;;5063147;28;20234;-79
2022/04/26 15:09:43;;;;;;;4.28;3.97;;;10.30;99.90;;;;;;5062535;28;20563;-79
2022/04/26 15:18:04;;;;;;;3.75;3.47;;;11.00;99.90;;;;;;5043277;28;20195;-79
2022/04/26 15:20:29;;;;;;;3.30;3.10;;;11.10;99.90;;;;;;5055312;28;20188;-78
2022/04/26 15:22:55;;;;;;;3.85;3.55;;;10.90;99.90;;;;;;5053439;28;20720;-79
2022/04/26 15:25:21;;;;;;;3.42;3.20;;;10.60;99.90;;;;;;5049569;28;20737;-78
2022/04/26 15:27:46;;;;;;;3.45;3.15;;;10.60;99.90;;;;;;5060968;28;20209;-79
2022/04/26 15:30:12;;;;;;;4.10;3.80;;;10.50;99.90;;;;;;5058483;28;20184;-79
2022/04/26 15:32:38;;;;;;;3.95;3.65;;;10.70;99.90;;;;;;5056497;28;20266;-79
2022/04/26 15:35:04;;;;;;;4.18;3.50;;;10.70;99.90;;;;;;5059976;28;20210;-79
2022/04/26 15:37:30;;;;;;;3.28;3.08;;;10.70;99.90;;;;;;5048990;28;20188;-78
2022/04/26 15:39:55;;;;;;;3.65;3.42;;;10.60;99.90;;;;;;5042953;28;20192;-73
2022/04/26 15:42:22;;;;;;;3.50;3.30;;;10.40;99.90;;;;;;5039845;28;20222;-73
2022/04/26 15:44:48;;;;;;;3.67;3.47;;;10.30;99.90;;;;;;5042577;28;20227;-79
2022/04/26 15:47:14;;;;;;;3.95;3.55;;;10.30;99.90;;;;;;5039688;28;20647;-75
2022/04/26 15:49:40;;;;;;;3.22;3.03;;;10.40;99.90;;;;;;5042854;28;20168;-75
2022/04/26 15:52:07;;;;;;;3.15;2.95;;;10.30;99.90;;;;;;5037743;28;20188;-75
2022/04/26 15:54:34;;;;;;;3.92;3.72;;;10.40;99.90;;;;;;5036807;28;20193;-74
2022/04/26 15:56:59;;;;;;;3.90;3.63;;;10.40;99.90;;;;;;5037986;28;20180;-74
2022/04/26 15:59:25;;;;;;;3.55;3.35;;;10.40;99.90;;;;;;5043795;28;20634;-75
2022/04/26 16:01:51;;;;;;;3.10;2.90;;;10.30;99.90;;;;;;5020411;28;20204;-77
2022/04/26 16:04:16;;;;;;;3.50;3.30;;;10.30;99.90;;;;;;5044815;28;20204;-75
2022/04/26 16:06:42;;;;;;;3.45;3.22;;;10.10;99.90;;;;;;5038092;28;20203;-74
2022/04/26 16:22:51;;;;;;;3.45;3.22;;;9.70;99.90;;;;;;5047912;28;20304;-77
2022/04/26 16:25:17;;;;;;;4.10;3.80;;;9.60;99.90;;;;;;5050258;28;20682;-78
2022/04/26 16:27:43;;;;;;;4.40;4.10;;;9.70;99.90;;;;;;5051076;28;20172;-78
2022/04/26 16:30:10;;;;;;;9.82;8.70;;;9.90;99.90;;;;;;5042492;28;20559;-74
2022/04/26 16:32:36;;;;;;;5.97;5.47;;;10.00;99.90;;;;;;5049377;28;20187;-74
2022/04/26 16:35:01;;;;;;;4.70;4.38;;;10.00;99.90;;;;;;5047174;28;20194;-74
2022/04/26 16:37:27;;;;;;;26.27;17.85;;;9.90;99.90;;;;;;5049462;28;20202;-74
2022/04/26 16:39:52;;;;;;;11.75;9.38;;;9.90;99.90;;;;;;5071481;28;20199;-74
2022/04/26 16:42:18;;;;;;;50.58;40.08;;;9.90;99.90;;;;;;5044118;28;20195;-74
2022/04/26 16:44:44;;;;;;;12.48;11.20;;;9.90;99.90;;;;;;5041597;28;20282;-74
2022/04/26 16:47:13;;;;;;;6.40;5.50;;;9.90;99.90;;;;;;5051226;28;20541;-74
2022/04/26 16:49:41;;;;;;;4.80;4.40;;;9.80;99.90;;;;;;5026739;28;20234;-74
2022/04/26 16:52:06;;;;;;;5.00;4.70;;;9.60;99.90;;;;;;5040467;28;20180;-73
2022/04/26 16:54:32;;;;;;;5.05;4.65;;;9.60;99.90;;;;;;5041140;28;20197;-73
2022/04/26 16:56:58;;;;;;;5.45;5.05;;;9.70;99.90;;;;;;5039747;28;20659;-72
2022/04/26 16:59:24;;;;;;;6.10;5.60;;;9.70;99.90;;;;;;5041355;28;20168;-73